createdAt,value
2022-12-22T01:55:34.908Z,23.00
2022-12-22T01:56:34.873Z,23.00
2022-12-22T01:57:34.839Z,23.00
2022-12-22T01:58:34.831Z,22.99
2022-12-22T01:59:34.788Z,22.99
2022-12-22T02:00:34.705Z,23.00
2022-12-22T02:01:34.714Z,23.00
2022-12-22T02:02:34.837Z,22.99
2022-12-22T02:23:33.795Z,22.99
2022-12-22T02:24:33.756Z,23.00
2022-12-22T02:25:33.704Z,23.00
2022-12-22T02:26:33.659Z,23.00
2022-12-22T02:27:33.618Z,23.00
2022-12-22T02:28:33.573Z,23.01
2022-12-22T02:29:33.533Z,23.00
2022-12-22T02:30:33.526Z,23.01
2022-12-22T02:31:33.568Z,23.01
2022-12-22T02:32:33.439Z,23.00
2022-12-22T02:33:33.413Z,23.00
2022-12-22T02:34:33.360Z,23.00
2022-12-22T02:35:33.328Z,23.01
2022-12-22T02:36:33.293Z,23.00
2022-12-22T02:37:33.280Z,23.00
2022-12-22T02:38:33.218Z,23.00
2022-12-22T02:39:33.175Z,23.00
2022-12-22T02:40:40.670Z,22.99
2022-12-22T02:41:33.106Z,22.98
2022-12-22T02:42:33.099Z,22.99
2022-12-22T02:43:33.039Z,22.99
2022-12-22T02:44:33.027Z,22.99
2022-12-22T02:45:32.969Z,22.98
2022-12-22T02:46:32.992Z,22.99
2022-12-22T02:47:32.888Z,22.98
2022-12-22T02:48:32.851Z,22.98
2022-12-22T02:49:32.809Z,22.98
2022-12-22T02:50:32.765Z,22.97
2022-12-22T02:51:32.727Z,22.98
2022-12-22T02:52:32.694Z,22.99
2022-12-22T02:53:32.691Z,22.97
2022-12-22T02:54:32.645Z,22.98
2022-12-22T02:55:32.572Z,22.97
2022-12-22T02:56:32.548Z,22.97
2022-12-22T02:57:32.534Z,22.97
2022-12-22T02:58:32.491Z,22.98
2022-12-22T02:59:32.471Z,22.98
2022-12-22T03:00:32.457Z,22.98
2022-12-22T03:01:32.504Z,22.98
2022-12-22T03:02:32.763Z,22.98
2022-12-22T03:03:32.507Z,22.98
2022-12-22T03:04:32.297Z,22.98
2022-12-22T03:05:32.256Z,22.98
2022-12-22T03:06:32.235Z,22.99
2022-12-22T03:07:32.190Z,22.99
2022-12-22T03:08:32.158Z,22.99
2022-12-22T03:09:32.122Z,22.99
2022-12-22T03:10:32.098Z,22.99
2022-12-22T03:11:32.102Z,22.99
2022-12-22T03:12:32.029Z,22.99
2022-12-22T03:13:31.963Z,23.00
2022-12-22T03:14:31.921Z,23.00
2022-12-22T03:15:31.881Z,22.99
2022-12-22T03:16:31.911Z,22.99
2022-12-22T03:17:31.808Z,23.00
2022-12-22T03:18:31.811Z,22.99
2022-12-22T03:19:31.765Z,22.99
2022-12-22T03:20:31.698Z,22.99
2022-12-22T03:21:31.673Z,22.99
2022-12-22T03:22:31.620Z,22.99
2022-12-22T03:23:31.582Z,23.00
2022-12-22T03:24:31.551Z,23.00
2022-12-22T03:25:31.503Z,23.00
2022-12-22T03:26:31.470Z,23.00
2022-12-22T03:27:31.459Z,23.00
2022-12-22T03:28:31.385Z,23.01
2022-12-22T03:29:31.349Z,23.00
2022-12-22T03:30:31.312Z,22.99
2022-12-22T03:31:31.335Z,23.00
2022-12-22T03:32:31.241Z,22.99
2022-12-22T03:33:31.187Z,22.98
2022-12-22T03:34:31.158Z,22.97
2022-12-22T03:35:31.105Z,22.96
2022-12-22T03:36:31.089Z,22.96
2022-12-22T03:37:31.046Z,22.96
2022-12-22T03:38:31.003Z,22.95
2022-12-22T03:39:30.982Z,22.96
2022-12-22T03:40:30.938Z,22.95
2022-12-22T03:41:30.896Z,22.96
2022-12-22T03:42:30.877Z,22.95
2022-12-22T03:43:30.841Z,22.96
2022-12-22T03:44:30.828Z,22.95
2022-12-22T03:45:30.739Z,22.96
2022-12-22T03:46:30.815Z,22.97
2022-12-22T03:47:30.658Z,22.97
2022-12-22T03:48:30.626Z,22.97
2022-12-22T03:49:30.570Z,22.97
2022-12-22T03:50:30.565Z,22.98
2022-12-22T03:51:30.497Z,22.98
2022-12-22T03:52:30.452Z,22.99
2022-12-22T03:53:30.421Z,22.99
2022-12-22T03:54:30.378Z,22.98
2022-12-22T03:55:30.334Z,22.98
2022-12-22T03:56:30.299Z,22.97
2022-12-22T03:57:30.268Z,22.97
2022-12-22T03:58:30.229Z,22.98
2022-12-22T03:59:30.189Z,22.97
2022-12-22T04:00:30.151Z,22.97
2022-12-22T04:01:30.210Z,22.97
2022-12-22T04:02:30.166Z,22.97
2022-12-22T04:03:30.116Z,22.97
2022-12-22T04:04:29.996Z,22.96
2022-12-22T04:05:29.981Z,22.97
2022-12-22T04:06:29.934Z,22.97
2022-12-22T04:07:29.867Z,22.97
2022-12-22T04:08:29.835Z,22.97
2022-12-22T04:09:29.794Z,22.97
2022-12-22T04:10:29.770Z,22.97
2022-12-22T04:11:29.710Z,22.97
2022-12-22T04:12:29.672Z,22.97
2022-12-22T04:13:29.632Z,22.97
2022-12-22T04:14:33.872Z,22.97
2022-12-22T04:15:29.554Z,22.96
2022-12-22T04:16:29.641Z,22.96
2022-12-22T04:17:29.477Z,22.96
2022-12-22T04:18:29.440Z,22.96
2022-12-22T04:19:29.415Z,22.97
2022-12-22T04:20:29.372Z,22.96
2022-12-22T04:21:29.334Z,22.97
2022-12-22T04:22:29.321Z,22.98
2022-12-22T04:23:29.255Z,22.98
2022-12-22T04:24:29.220Z,22.97
2022-12-22T04:25:29.175Z,22.98
2022-12-22T04:26:29.120Z,22.98
2022-12-22T04:27:29.088Z,22.98
2022-12-22T04:28:29.073Z,22.98
2022-12-22T04:29:29.025Z,22.98
2022-12-22T04:30:28.945Z,22.97
2022-12-22T04:31:28.980Z,22.97
2022-12-22T04:32:28.864Z,22.97
2022-12-22T04:33:28.815Z,22.97
2022-12-22T04:34:28.813Z,22.97
2022-12-22T04:35:28.744Z,22.97
2022-12-22T04:36:28.709Z,22.97
2022-12-22T04:37:28.666Z,22.97
2022-12-22T04:38:28.676Z,22.96
2022-12-22T04:39:28.595Z,22.96
2022-12-22T04:40:28.560Z,22.96
2022-12-22T04:41:28.513Z,22.96
2022-12-22T04:42:28.470Z,22.97
2022-12-22T04:43:28.429Z,22.97
2022-12-22T04:44:28.374Z,22.97
2022-12-22T04:45:28.357Z,22.96
2022-12-22T04:46:28.381Z,22.96
2022-12-22T04:47:28.243Z,22.96
2022-12-22T04:48:28.205Z,22.97
2022-12-22T04:49:28.165Z,22.97
2022-12-22T04:50:28.117Z,22.97
2022-12-22T04:51:28.073Z,22.96
2022-12-22T04:52:28.019Z,22.97
2022-12-22T04:53:27.987Z,22.96
2022-12-22T04:54:28.007Z,22.97
2022-12-22T04:55:27.906Z,22.98
2022-12-22T04:56:27.870Z,22.98
2022-12-22T04:57:27.831Z,22.97
2022-12-22T04:58:27.791Z,22.97
2022-12-22T04:59:27.756Z,22.96
2022-12-22T05:00:27.717Z,22.97
2022-12-22T05:01:27.778Z,22.97
2022-12-22T05:02:27.795Z,22.97
2022-12-22T05:03:27.651Z,22.98
2022-12-22T05:04:27.575Z,22.97
2022-12-22T05:05:27.528Z,22.98
2022-12-22T05:06:27.481Z,22.98
2022-12-22T05:07:27.448Z,22.98
2022-12-22T05:08:27.412Z,22.98
2022-12-22T05:09:27.381Z,22.99
2022-12-22T05:10:27.361Z,22.99
2022-12-22T05:11:27.321Z,23.00
2022-12-22T05:12:27.264Z,22.99
2022-12-22T05:13:27.246Z,22.99
2022-12-22T05:14:27.198Z,22.99
2022-12-22T05:15:27.146Z,22.99
2022-12-22T05:16:27.162Z,22.99
2022-12-22T05:17:27.086Z,22.99
2022-12-22T05:18:27.049Z,22.98
2022-12-22T05:19:30.729Z,22.98
2022-12-22T05:20:26.980Z,22.97
2022-12-22T05:21:26.942Z,22.97
2022-12-22T05:22:26.940Z,22.96
2022-12-22T05:23:26.889Z,22.96
2022-12-22T05:24:26.864Z,22.97
2022-12-22T05:25:32.926Z,22.98
2022-12-22T05:26:26.831Z,22.97
2022-12-22T05:27:26.770Z,22.96
2022-12-22T05:28:26.743Z,22.97
2022-12-22T05:29:26.715Z,22.97
2022-12-22T05:30:26.704Z,22.97
2022-12-22T05:31:26.804Z,22.97
2022-12-22T05:32:26.647Z,22.96
2022-12-22T05:33:26.621Z,22.96
2022-12-22T05:34:26.588Z,22.96
2022-12-22T05:35:26.570Z,22.96
2022-12-22T05:36:26.550Z,22.96
2022-12-22T05:37:26.520Z,22.97
2022-12-22T05:38:26.504Z,22.96
2022-12-22T05:39:26.473Z,22.95
2022-12-22T05:40:26.442Z,22.96
2022-12-22T05:41:26.412Z,22.96
2022-12-22T05:42:26.387Z,22.96
2022-12-22T05:43:26.333Z,22.95
2022-12-22T05:44:26.300Z,22.95
2022-12-22T05:45:26.295Z,22.93
2022-12-22T05:46:26.351Z,22.93
2022-12-22T05:47:26.224Z,22.92
2022-12-22T05:48:29.682Z,22.93
2022-12-22T05:49:26.183Z,22.92
2022-12-22T05:50:26.153Z,22.93
2022-12-22T05:51:26.134Z,22.94
2022-12-22T05:52:26.110Z,22.94
2022-12-22T05:53:26.086Z,22.96
2022-12-22T05:54:26.052Z,22.96
2022-12-22T05:55:26.040Z,22.96
2022-12-22T05:56:26.031Z,22.96
2022-12-22T05:57:25.970Z,22.96
2022-12-22T05:58:25.977Z,22.96
2022-12-22T05:59:25.919Z,22.95
2022-12-22T06:00:25.895Z,22.95
2022-12-22T06:01:25.907Z,22.94
2022-12-22T06:02:26.058Z,22.95
2022-12-22T06:03:26.055Z,22.94
2022-12-22T06:04:25.940Z,22.93
2022-12-22T06:05:25.745Z,22.92
2022-12-22T06:06:25.716Z,22.92
2022-12-22T06:07:25.693Z,22.92
2022-12-22T06:08:25.651Z,22.92
2022-12-22T06:09:25.611Z,22.92
2022-12-22T06:10:25.588Z,22.93
2022-12-22T06:11:25.567Z,22.92
2022-12-22T06:12:25.532Z,22.93
2022-12-22T06:13:25.536Z,22.93
2022-12-22T06:14:25.514Z,22.93
2022-12-22T06:15:25.436Z,22.93
2022-12-22T06:16:25.449Z,22.94
2022-12-22T06:17:25.357Z,22.93
2022-12-22T06:18:25.399Z,22.93
2022-12-22T06:19:25.729Z,22.93
2022-12-22T06:20:25.251Z,22.93
2022-12-22T06:21:25.223Z,22.93
2022-12-22T06:22:25.292Z,22.93
2022-12-22T06:23:25.169Z,22.93
2022-12-22T06:24:25.146Z,22.90
2022-12-22T06:25:25.874Z,22.88
2022-12-22T06:26:25.075Z,22.86
2022-12-22T06:27:25.044Z,22.86
2022-12-22T06:28:25.018Z,22.86
2022-12-22T06:29:24.979Z,22.86
2022-12-22T06:30:32.732Z,22.87
2022-12-22T06:31:25.041Z,22.87
2022-12-22T06:32:24.880Z,22.88
2022-12-22T06:33:24.861Z,22.90
2022-12-22T06:34:24.813Z,22.92
2022-12-22T06:35:24.814Z,22.93
2022-12-22T06:36:24.783Z,22.95
2022-12-22T06:37:24.799Z,22.97
2022-12-22T06:38:24.702Z,22.97
2022-12-22T06:39:24.670Z,22.99
2022-12-22T06:40:24.618Z,23.00
2022-12-22T06:41:24.583Z,23.00
2022-12-22T06:42:24.806Z,23.01
2022-12-22T06:43:24.538Z,23.03
2022-12-22T06:44:24.480Z,23.04
2022-12-22T06:45:24.440Z,23.05
2022-12-22T06:46:24.447Z,23.05
2022-12-22T06:47:24.811Z,23.06
2022-12-22T06:48:24.338Z,23.08
2022-12-22T06:49:24.305Z,23.09
2022-12-22T06:50:24.271Z,23.09
2022-12-22T06:51:24.233Z,23.10
2022-12-22T06:52:24.331Z,23.11
2022-12-22T06:53:24.169Z,23.10
2022-12-22T06:54:26.497Z,23.11
2022-12-22T06:55:24.304Z,23.14
2022-12-22T06:56:24.066Z,23.14
2022-12-22T06:57:24.002Z,23.13
2022-12-22T06:58:23.960Z,23.13
2022-12-22T06:59:23.913Z,23.12
2022-12-22T07:00:24.305Z,23.10
2022-12-22T07:01:24.003Z,23.09
2022-12-22T07:02:24.067Z,23.09
2022-12-22T07:03:23.947Z,23.05
2022-12-22T07:04:23.726Z,23.03
2022-12-22T07:05:23.707Z,23.02
2022-12-22T07:06:23.669Z,23.01
2022-12-22T07:07:23.815Z,22.99
2022-12-22T07:08:23.626Z,22.97
2022-12-22T07:09:23.582Z,22.96
2022-12-22T07:10:23.812Z,22.95
2022-12-22T07:11:23.517Z,22.95
2022-12-22T07:12:23.500Z,22.93
2022-12-22T07:13:23.814Z,22.92
2022-12-22T07:14:23.436Z,22.92
2022-12-22T07:15:23.408Z,22.91
2022-12-22T07:16:23.459Z,22.90
2022-12-22T07:17:23.323Z,22.91
2022-12-22T07:18:23.354Z,22.90
2022-12-22T07:19:23.252Z,22.90
2022-12-22T07:20:23.214Z,22.89
2022-12-22T07:21:23.189Z,22.89
2022-12-22T07:22:29.549Z,22.89
2022-12-22T07:23:23.313Z,22.88
2022-12-22T07:24:23.081Z,22.88
2022-12-22T07:25:23.060Z,22.88
2022-12-22T07:26:23.025Z,22.88
2022-12-22T07:27:22.994Z,22.88
2022-12-22T07:28:23.320Z,22.88
2022-12-22T07:29:22.944Z,22.88
2022-12-22T07:30:22.913Z,22.88
2022-12-22T07:31:22.954Z,22.88
2022-12-22T07:32:22.850Z,22.88
2022-12-22T07:33:22.821Z,22.87
2022-12-22T07:34:22.830Z,22.87
2022-12-22T07:35:22.756Z,22.87
2022-12-22T07:36:22.819Z,22.88
2022-12-22T07:37:22.669Z,22.87
2022-12-22T07:38:22.646Z,22.87
2022-12-22T07:39:22.613Z,22.87
2022-12-22T07:40:22.578Z,22.87
2022-12-22T07:41:22.826Z,22.87
2022-12-22T07:42:22.522Z,22.88
2022-12-22T07:43:23.079Z,22.87
2022-12-22T07:44:23.061Z,22.87
2022-12-22T07:45:22.912Z,22.86
2022-12-22T07:46:22.763Z,22.87
2022-12-22T07:47:22.797Z,22.87
2022-12-22T07:48:23.174Z,22.86
2022-12-22T07:49:22.877Z,22.87
2022-12-22T07:50:22.869Z,22.88
2022-12-22T07:51:22.824Z,22.87
2022-12-22T07:52:22.879Z,22.87
2022-12-22T07:53:22.510Z,22.87
2022-12-22T07:54:22.659Z,22.88
2022-12-22T07:55:22.466Z,22.88
2022-12-22T07:56:22.514Z,22.88
2022-12-22T07:57:22.775Z,22.89
2022-12-22T07:58:22.448Z,22.89
2022-12-22T07:59:23.056Z,22.88
2022-12-22T08:00:22.241Z,22.89
2022-12-22T08:01:22.368Z,22.88
2022-12-22T08:02:23.055Z,22.89
2022-12-22T08:03:22.427Z,22.90
2022-12-22T08:04:22.226Z,22.89
2022-12-22T08:05:22.340Z,22.90
2022-12-22T08:06:22.371Z,22.90
2022-12-22T08:07:22.152Z,22.90
2022-12-22T08:08:22.170Z,22.91
2022-12-22T08:09:22.321Z,22.90
2022-12-22T08:10:22.092Z,22.90
2022-12-22T08:11:22.054Z,22.91
2022-12-22T08:12:21.836Z,22.91
2022-12-22T08:13:21.705Z,22.90
2022-12-22T08:14:21.512Z,22.92
2022-12-22T08:15:21.834Z,22.91
2022-12-22T08:16:21.516Z,22.91
2022-12-22T08:17:21.419Z,22.91
2022-12-22T08:18:21.402Z,22.92
2022-12-22T08:19:21.377Z,22.92
2022-12-22T08:20:21.896Z,22.91
2022-12-22T08:21:22.334Z,22.92
2022-12-22T08:22:21.311Z,22.93
2022-12-22T08:23:21.260Z,22.93
2022-12-22T08:24:21.496Z,22.92
2022-12-22T08:25:21.200Z,22.93
2022-12-22T08:26:21.349Z,22.92
2022-12-22T08:27:26.000Z,22.92
2022-12-22T08:28:21.106Z,22.92
2022-12-22T08:29:21.076Z,22.91
2022-12-22T08:30:21.045Z,22.92
2022-12-22T08:31:21.431Z,22.92
2022-12-22T08:32:20.972Z,22.92
2022-12-22T08:33:21.354Z,22.92
2022-12-22T08:34:20.912Z,22.92
2022-12-22T08:35:20.880Z,22.92
2022-12-22T08:36:21.346Z,22.91
2022-12-22T08:37:20.830Z,22.92
2022-12-22T08:38:20.915Z,22.92
2022-12-22T08:39:20.846Z,22.96
2022-12-22T08:40:20.739Z,22.99
2022-12-22T08:41:20.687Z,23.01
2022-12-22T08:42:20.872Z,23.03
2022-12-22T08:43:20.611Z,23.06
2022-12-22T08:44:20.572Z,23.07
2022-12-22T08:45:20.542Z,23.09
2022-12-22T08:46:20.571Z,23.11
2022-12-22T08:47:20.932Z,23.14
2022-12-22T08:48:20.418Z,23.17
2022-12-22T08:49:20.393Z,23.19
2022-12-22T08:50:20.363Z,23.20
2022-12-22T08:51:20.315Z,23.22
2022-12-22T08:52:20.349Z,23.22
2022-12-22T08:53:54.016Z,23.22
2022-12-22T08:54:20.246Z,23.23
2022-12-22T08:55:20.176Z,23.24
2022-12-22T08:56:20.147Z,23.23
2022-12-22T08:57:20.848Z,23.23
2022-12-22T08:58:20.081Z,23.23
2022-12-22T08:59:20.006Z,23.20
2022-12-22T09:00:19.958Z,23.19
2022-12-22T09:01:20.715Z,23.19
2022-12-22T09:02:20.012Z,23.19
2022-12-22T09:03:19.895Z,23.18
2022-12-22T09:04:19.817Z,23.18
2022-12-22T09:05:19.764Z,23.17
2022-12-22T09:06:23.728Z,23.18
2022-12-22T09:07:19.722Z,23.17
2022-12-22T09:08:19.652Z,23.17
2022-12-22T09:09:19.620Z,23.16
2022-12-22T09:10:19.614Z,23.18
2022-12-22T09:11:19.555Z,23.18
2022-12-22T09:12:19.515Z,23.19
2022-12-22T09:13:19.505Z,23.21
2022-12-22T09:14:20.860Z,23.24
2022-12-22T09:15:19.442Z,23.27
2022-12-22T09:16:19.944Z,23.31
2022-12-22T09:17:19.352Z,23.35
2022-12-22T09:18:19.332Z,23.37
2022-12-22T09:19:19.296Z,23.39
2022-12-22T09:20:19.308Z,23.39
2022-12-22T09:21:19.359Z,23.40
2022-12-22T09:22:25.041Z,23.41
2022-12-22T09:23:19.133Z,23.39
2022-12-22T09:24:19.108Z,23.39
2022-12-22T09:25:19.095Z,23.39
2022-12-22T09:26:19.077Z,23.37
2022-12-22T09:27:19.021Z,23.37
2022-12-22T09:28:19.000Z,23.36
2022-12-22T09:29:19.363Z,23.35
2022-12-22T09:30:19.364Z,23.34
2022-12-22T09:31:19.274Z,23.33
2022-12-22T09:32:18.994Z,23.32
2022-12-22T09:33:18.852Z,23.31
2022-12-22T09:34:18.918Z,23.30
2022-12-22T09:35:18.865Z,23.29
2022-12-22T09:36:18.773Z,23.28
2022-12-22T09:37:18.747Z,23.27
2022-12-22T09:38:18.701Z,23.28
2022-12-22T09:39:22.288Z,23.27
2022-12-22T09:40:18.867Z,23.26
2022-12-22T09:41:18.638Z,23.25
2022-12-22T09:42:18.608Z,23.25
2022-12-22T09:43:18.541Z,23.24
2022-12-22T09:44:18.496Z,23.24
2022-12-22T09:45:18.868Z,23.24
2022-12-22T09:46:18.554Z,23.24
2022-12-22T09:47:18.408Z,23.24
2022-12-22T09:48:18.379Z,23.24
2022-12-22T09:49:18.345Z,23.24
2022-12-22T09:50:18.377Z,23.23
2022-12-22T09:51:24.410Z,23.23
2022-12-22T09:52:18.263Z,23.22
2022-12-22T09:53:18.221Z,23.23
2022-12-22T09:54:18.195Z,23.22
2022-12-22T09:55:18.146Z,23.22
2022-12-22T09:56:18.374Z,23.23
2022-12-22T09:57:18.078Z,23.21
2022-12-22T09:58:23.968Z,23.21
2022-12-22T09:59:18.024Z,23.20
2022-12-22T10:00:18.009Z,23.19
2022-12-22T10:01:18.398Z,23.19
2022-12-22T10:02:18.019Z,23.19
2022-12-22T10:03:17.986Z,23.18
2022-12-22T10:04:17.879Z,23.18
2022-12-22T10:05:17.879Z,23.18
2022-12-22T10:06:17.811Z,23.18
2022-12-22T10:07:17.767Z,23.19
2022-12-22T10:08:17.737Z,23.18
2022-12-22T10:09:46.279Z,23.18
2022-12-22T10:10:17.877Z,23.17
2022-12-22T10:11:17.641Z,23.17
2022-12-22T10:12:17.881Z,23.17
2022-12-22T10:13:17.564Z,23.19
2022-12-22T10:14:17.562Z,23.20
2022-12-22T10:15:21.778Z,23.23
2022-12-22T10:16:17.598Z,23.24
2022-12-22T10:17:17.883Z,23.24
2022-12-22T10:18:17.504Z,23.19
2022-12-22T10:19:17.468Z,23.04
2022-12-22T10:20:17.971Z,22.81
2022-12-22T10:21:17.411Z,22.52
2022-12-22T10:22:17.403Z,22.28
2022-12-22T10:23:17.387Z,21.87
2022-12-22T10:24:17.379Z,21.35
2022-12-22T10:25:17.883Z,21.03
2022-12-22T10:26:27.947Z,20.91
2022-12-22T10:27:17.376Z,20.95
2022-12-22T10:28:17.378Z,21.07
2022-12-22T10:29:17.376Z,21.20
2022-12-22T10:30:17.446Z,21.35
2022-12-22T10:31:17.362Z,21.49
2022-12-22T10:32:17.468Z,21.65
2022-12-22T10:33:17.370Z,21.80
2022-12-22T10:34:17.350Z,21.92
2022-12-22T10:35:17.391Z,21.98
2022-12-22T10:36:17.389Z,21.70
2022-12-22T10:37:17.271Z,21.36
2022-12-22T10:38:21.396Z,21.11
2022-12-22T10:39:17.256Z,20.92
2022-12-22T10:40:17.457Z,20.72
2022-12-22T10:41:17.258Z,20.57
2022-12-22T10:42:17.267Z,20.44
2022-12-22T10:43:17.257Z,20.33
2022-12-22T10:44:17.257Z,20.30
2022-12-22T10:45:17.234Z,20.26
2022-12-22T10:46:17.572Z,20.17
2022-12-22T10:47:18.116Z,20.12
2022-12-22T10:48:17.231Z,20.16
2022-12-22T10:49:17.241Z,20.29
2022-12-22T10:50:17.239Z,20.38
2022-12-22T10:51:17.394Z,20.48
2022-12-22T10:52:17.820Z,20.58
2022-12-22T10:53:17.238Z,20.64
2022-12-22T10:54:17.538Z,20.75
2022-12-22T10:55:17.240Z,20.86
2022-12-22T10:56:17.409Z,20.92
2022-12-22T10:57:17.257Z,21.02
2022-12-22T10:58:17.252Z,21.10
2022-12-22T10:59:17.238Z,21.15
2022-12-22T11:00:17.213Z,21.24
2022-12-22T11:01:17.278Z,21.31
2022-12-22T11:02:17.515Z,21.28
2022-12-22T11:03:22.498Z,21.26
2022-12-22T11:04:17.190Z,21.22
2022-12-22T11:05:17.185Z,21.23
2022-12-22T11:06:17.400Z,21.25
2022-12-22T11:07:17.161Z,21.29
2022-12-22T11:08:17.143Z,21.32
2022-12-22T11:09:33.060Z,21.37
2022-12-22T11:10:17.133Z,21.45
2022-12-22T11:11:17.402Z,21.54
2022-12-22T11:12:17.468Z,21.60
2022-12-22T11:13:17.076Z,21.39
2022-12-22T11:14:17.081Z,21.11
2022-12-22T11:15:23.765Z,20.89
2022-12-22T11:16:17.145Z,20.59
2022-12-22T11:17:17.468Z,20.20
2022-12-22T11:18:17.081Z,20.21
2022-12-22T11:19:17.045Z,20.32
2022-12-22T11:20:17.057Z,20.46
2022-12-22T11:21:22.140Z,20.62
2022-12-22T11:22:17.032Z,20.76
2022-12-22T11:23:17.027Z,20.91
2022-12-22T11:24:17.400Z,21.04
2022-12-22T11:25:17.009Z,21.16
2022-12-22T11:26:17.402Z,21.27
2022-12-22T11:27:16.980Z,21.37
2022-12-22T11:28:16.982Z,21.45
2022-12-22T11:29:16.983Z,21.54
2022-12-22T11:30:16.980Z,21.61
2022-12-22T11:31:17.529Z,21.68
2022-12-22T11:32:16.897Z,21.74
2022-12-22T11:33:16.867Z,21.80
2022-12-22T11:34:20.999Z,21.86
2022-12-22T11:35:16.808Z,21.90
2022-12-22T11:36:16.907Z,21.96
2022-12-22T11:37:16.784Z,22.01
2022-12-22T11:38:16.765Z,22.04
2022-12-22T11:39:16.725Z,22.06
2022-12-22T11:40:16.734Z,22.11
2022-12-22T11:41:16.937Z,22.13
2022-12-22T11:42:16.662Z,22.17
2022-12-22T11:43:16.635Z,22.20
2022-12-22T11:44:16.618Z,22.22
2022-12-22T11:45:16.592Z,22.24
2022-12-22T11:46:16.655Z,22.27
2022-12-22T11:47:16.914Z,22.28
2022-12-22T11:48:16.537Z,22.31
2022-12-22T11:49:16.524Z,22.33
2022-12-22T11:50:57.603Z,22.34
2022-12-22T11:51:18.618Z,22.35
2022-12-22T11:52:16.916Z,22.34
2022-12-22T11:53:16.407Z,22.36
2022-12-22T11:54:16.375Z,22.37
2022-12-22T11:55:16.340Z,22.38
2022-12-22T11:56:16.323Z,22.38
2022-12-22T11:57:16.300Z,22.39
2022-12-22T11:58:16.268Z,22.41
2022-12-22T11:59:16.242Z,22.42
2022-12-22T12:00:16.212Z,22.43
2022-12-22T12:01:22.423Z,22.43
2022-12-22T12:02:16.248Z,22.43
2022-12-22T12:03:16.245Z,22.44
2022-12-22T12:04:16.180Z,22.44
2022-12-22T12:05:16.040Z,22.44
2022-12-22T12:06:16.044Z,22.45
2022-12-22T12:07:18.270Z,22.44
2022-12-22T12:08:15.967Z,22.45
2022-12-22T12:09:15.937Z,22.45
2022-12-22T12:10:15.896Z,22.45
2022-12-22T12:11:15.868Z,22.45
2022-12-22T12:12:15.840Z,22.44
2022-12-22T12:13:21.071Z,22.45
2022-12-22T12:14:15.827Z,22.47
2022-12-22T12:15:15.767Z,22.47
2022-12-22T12:16:15.817Z,22.47
2022-12-22T12:17:15.708Z,22.47
2022-12-22T12:18:15.711Z,22.48
2022-12-22T12:19:16.559Z,22.49
2022-12-22T12:20:15.655Z,22.49
2022-12-22T12:21:15.597Z,22.50
2022-12-22T12:22:15.598Z,22.51
2022-12-22T12:23:15.547Z,22.52
2022-12-22T12:24:15.528Z,22.53
2022-12-22T12:25:15.498Z,22.55
2022-12-22T12:26:15.447Z,22.57
2022-12-22T12:27:15.416Z,22.57
2022-12-22T12:28:15.400Z,22.59
2022-12-22T12:29:15.385Z,22.59
2022-12-22T12:31:15.382Z,22.60
2022-12-22T12:32:15.431Z,22.60
2022-12-22T12:33:15.287Z,22.61
2022-12-22T12:34:15.245Z,22.62
2022-12-22T12:35:15.214Z,22.62
2022-12-22T12:36:15.182Z,22.62
2022-12-22T12:37:15.434Z,22.62
2022-12-22T12:38:39.489Z,22.63
2022-12-22T12:39:15.091Z,22.62
2022-12-22T12:40:15.070Z,22.62
2022-12-22T12:41:15.038Z,22.63
2022-12-22T12:42:15.436Z,22.64
2022-12-22T12:43:16.709Z,22.64
2022-12-22T12:44:14.958Z,22.64
2022-12-22T12:45:14.939Z,22.64
2022-12-22T12:46:14.927Z,22.65
2022-12-22T12:47:14.867Z,22.65
2022-12-22T12:48:14.831Z,22.65
2022-12-22T12:49:14.810Z,22.65
2022-12-22T12:50:14.792Z,22.66
2022-12-22T12:51:14.788Z,22.66
2022-12-22T12:52:14.755Z,22.65
2022-12-22T12:53:14.774Z,22.65
2022-12-22T12:54:14.729Z,22.66
2022-12-22T12:55:20.558Z,22.65
2022-12-22T12:56:14.646Z,22.65
2022-12-22T12:57:14.738Z,22.65
2022-12-22T12:58:14.596Z,22.66
2022-12-22T12:59:14.576Z,22.66
2022-12-22T13:00:14.557Z,22.66
2022-12-22T13:01:15.462Z,22.67
2022-12-22T13:02:14.783Z,22.67
2022-12-22T13:03:30.658Z,22.68
2022-12-22T13:04:14.608Z,22.67
2022-12-22T13:05:14.432Z,22.68
2022-12-22T13:06:14.384Z,22.68
2022-12-22T13:07:14.356Z,22.69
2022-12-22T13:08:14.415Z,22.69
2022-12-22T13:10:14.289Z,22.69
2022-12-22T13:11:14.240Z,22.68
2022-12-22T13:12:18.287Z,22.69
2022-12-22T13:13:14.192Z,22.69
2022-12-22T13:14:14.277Z,22.70
2022-12-22T13:15:14.140Z,22.71
2022-12-22T13:16:14.177Z,22.71
2022-12-22T13:17:14.278Z,22.71
2022-12-22T13:18:14.073Z,22.71
2022-12-22T13:19:14.002Z,22.72
2022-12-22T13:20:13.979Z,22.72
2022-12-22T13:22:13.925Z,22.72
2022-12-22T13:23:13.881Z,22.72
2022-12-22T13:24:24.611Z,22.72
2022-12-22T13:25:13.821Z,22.72
2022-12-22T13:26:13.886Z,22.74
2022-12-22T13:27:13.837Z,22.73
2022-12-22T13:28:13.743Z,22.75
2022-12-22T13:29:13.716Z,22.75
2022-12-22T13:30:13.793Z,22.74
2022-12-22T13:31:13.682Z,22.75
2022-12-22T13:32:13.622Z,22.74
2022-12-22T13:33:13.610Z,22.75
2022-12-22T13:34:13.571Z,22.75
2022-12-22T13:35:30.783Z,22.74
2022-12-22T13:36:13.542Z,22.74
2022-12-22T13:37:13.535Z,22.74
2022-12-22T13:38:13.949Z,22.74
2022-12-22T13:39:13.421Z,22.74
2022-12-22T13:40:13.409Z,22.75
2022-12-22T13:41:12.356Z,22.75
2022-12-22T13:42:13.398Z,22.75
2022-12-22T13:43:13.277Z,22.74
2022-12-22T13:44:13.253Z,22.75
2022-12-22T13:45:13.241Z,22.75
2022-12-22T13:46:13.224Z,22.75
2022-12-22T13:47:13.312Z,22.76
2022-12-22T13:48:13.091Z,22.75
2022-12-22T13:49:13.690Z,22.76
2022-12-22T13:50:13.089Z,22.74
2022-12-22T13:51:12.993Z,22.75
2022-12-22T13:52:12.959Z,22.76
2022-12-22T13:53:22.857Z,22.76
2022-12-22T13:54:13.036Z,22.76
2022-12-22T13:55:12.876Z,22.76
2022-12-22T13:56:12.876Z,22.77
2022-12-22T13:57:12.859Z,22.77
2022-12-22T13:58:12.831Z,22.77
2022-12-22T13:59:12.747Z,22.78
2022-12-22T14:00:12.724Z,22.78
2022-12-22T14:01:12.766Z,22.78
2022-12-22T14:02:12.827Z,22.78
2022-12-22T14:03:34.133Z,22.78
2022-12-22T14:04:12.866Z,22.79
2022-12-22T14:05:12.594Z,22.79
2022-12-22T14:06:12.549Z,22.80
2022-12-22T14:07:12.739Z,22.81
2022-12-22T14:08:12.517Z,22.81
2022-12-22T14:09:12.459Z,22.83
2022-12-22T14:10:12.443Z,22.82
2022-12-22T14:11:12.437Z,22.84
2022-12-22T14:12:12.404Z,22.83
2022-12-22T14:13:12.402Z,22.84
2022-12-22T14:14:12.358Z,22.83
2022-12-22T14:15:12.303Z,22.84
2022-12-22T14:16:12.312Z,22.84
2022-12-22T14:17:12.299Z,22.84
2022-12-22T14:18:12.222Z,22.83
2022-12-22T14:19:12.199Z,22.84
2022-12-22T14:20:12.176Z,22.84
2022-12-22T14:21:12.157Z,22.84
2022-12-22T18:33:05.116Z,22.84
2022-12-22T18:34:05.077Z,22.84
2022-12-22T18:35:05.043Z,22.84
2022-12-22T18:36:05.018Z,22.84
2022-12-22T18:37:04.991Z,22.84
2022-12-22T18:38:05.034Z,22.84
2022-12-22T18:39:04.942Z,22.85
2022-12-22T18:40:04.930Z,22.84
2022-12-22T18:41:04.901Z,22.85
2022-12-22T18:42:04.855Z,22.85
2022-12-22T18:43:04.829Z,22.84
2022-12-22T18:44:04.802Z,22.84
2022-12-22T18:45:04.772Z,22.85
2022-12-22T18:46:04.757Z,22.85
2022-12-22T18:47:04.838Z,22.84
2022-12-22T18:48:04.679Z,22.84
2022-12-22T18:49:06.002Z,22.84
2022-12-22T18:50:04.886Z,22.83
2022-12-22T18:51:04.655Z,22.83
2022-12-22T18:52:04.617Z,22.84
2022-12-22T18:53:04.588Z,22.84
2022-12-22T18:54:04.576Z,22.84
2022-12-22T18:55:04.562Z,22.84
2022-12-22T18:56:04.550Z,22.84
2022-12-22T18:57:04.518Z,22.83
2022-12-22T18:58:04.489Z,22.85
2022-12-22T18:59:04.459Z,22.85
2022-12-22T19:00:08.259Z,22.84
2022-12-22T19:01:04.502Z,22.84
2022-12-22T19:02:04.575Z,22.84
2022-12-22T19:03:04.470Z,22.84
2022-12-22T19:04:04.323Z,22.85
2022-12-22T19:05:04.330Z,22.85
2022-12-22T19:06:04.361Z,22.84
2022-12-22T19:07:04.282Z,22.84
2022-12-22T19:08:04.303Z,22.84
2022-12-22T19:09:04.197Z,22.85
2022-12-22T19:10:05.064Z,22.84
2022-12-22T19:11:04.140Z,22.84
2022-12-22T19:12:04.115Z,22.84
2022-12-22T19:13:04.084Z,22.85
2022-12-22T19:14:04.057Z,22.84
2022-12-22T19:15:04.028Z,22.85
2022-12-22T19:16:04.073Z,22.85
2022-12-22T19:17:03.978Z,22.85
2022-12-22T19:18:04.019Z,22.86
2022-12-22T19:19:03.925Z,22.85
2022-12-22T19:20:03.895Z,22.86
2022-12-22T19:21:03.862Z,22.85